الصفحة الرئيسية
METAR-TAF:

METAR-TAF

مطار :

مطار ناريتا الدولي, اليابان

دائرة عرض: 35-46N, خط طول: 140-23E, ارتفاع: 41 متر

مراقبة الطقس الحالي

تاريخ ووقت الإصدار 41 دقيقة قبل الساعة 22:00UTC
ريح 5 عقدة من الجنوب الغربي, الاتجاه يتراوح بين الجنوب و الغرب/الجنوب الغربي
درجة الحرارة 29°درجة مئوية
الرطوبة 89%
ضغط 1009 hPa
الرؤية 10 كم أو أكثر
غيوم مفككة على ارتفاع 1500 قدم

METAR: RJAA 212200Z 22005KT 180V250 9999 BKN015 29/27 Q1009 BECMG 26006KT RMK 5CU015 A2980

زمن: 07:41 (22:41 UTC)

توقعات

تاريخ ووقت الإصدار 5ساعات و 36 دقيقة قبل الساعة 17:05UTC
التوقعات صالحة من21 الساعة 18 UTC إلى 23 الساعة 00 UTC
ريح 4 عقدة من الجنوب
الرؤية 10 كم أو أكثر
غيوم قليلة على ارتفاع 2000 قدم
مؤقت
من 21 الساعة 18 UTC إلى 21 الساعة 21 UTC
غيوم قليلة على ارتفاع 500 قدم
غيوم مفككة على ارتفاع 800 قدم
أصبح
من 21 الساعة 21 UTC إلى 21 الساعة 23 UTC
ريح 6 عقدة من الشمال
أصبح
من 22 الساعة 03 UTC إلى 22 الساعة 05 UTC
ريح 10 عقدة من الجنوب الشرقي

TAF: RJAA 211705Z 2118/2300 18004KT 9999 FEW020 TEMPO 2118/2121 FEW005 BKN008 BECMG 2121/2123 36006KT BECMG 2203/2205 14010KT

أرصاد الطقس والتوقعات من أكثر من 4000 مطار (تقارير الطقس للمطار METAR والتنبؤ بالطقس بالمطارTAF).

المحطات المتاحة هي النقط الصفراء والحمراء على الخريطة.

حرك المؤشر فوق النقطة لمعرفة اسم المحطة.

ثم انقر لمعرفة أرصاد وتوقعات الطقس.

لتغيير الخارطة: اضغط على الأزرار الخضراء مع رمز الصليب الأسود للتكبير. على الزر الأخضر مع شرطة للتصغير، أو على الأسهم الخضراء للخرائط المجاورة.


METAR-TAF: